Time;durP1;ratioP1;P1;durP2;ratioP2;P2;SDS_P1;SDS_P2;PMS_P1;PMS_P2;Temp;Humidity;BMP_temperature;BMP_pressure;BME280_temperature;BME280_humidity;BME280_pressure;Samples;Min_cycle;Max_cycle;Signal;HPM_P1;HPM_P2
2022/07/28 00:00:44;;;;;;;4.10;2.47;;;10.40;99.90;;;;;;5037251;28;20455;-86
2022/07/28 00:03:10;;;;;;;4.65;2.70;;;10.40;99.90;;;;;;5037354;28;20380;-85
2022/07/28 00:05:35;;;;;;;4.80;2.80;;;10.40;99.90;;;;;;5038677;28;20905;-86
2022/07/28 00:08:01;;;;;;;7.15;3.00;;;10.30;99.90;;;;;;5038574;28;20380;-86
2022/07/28 00:10:27;;;;;;;4.28;2.70;;;10.30;99.90;;;;;;5029869;28;20934;-85
2022/07/28 00:12:52;;;;;;;5.63;2.50;;;10.30;99.90;;;;;;5027411;28;20464;-85
2022/07/28 00:15:18;;;;;;;6.20;2.90;;;10.20;99.90;;;;;;5028211;28;20462;-86
2022/07/28 00:17:43;;;;;;;5.68;2.70;;;10.20;99.90;;;;;;5028254;28;20721;-85
2022/07/28 00:20:10;;;;;;;4.70;2.50;;;10.20;99.90;;;;;;5028212;28;20409;-86
2022/07/28 00:22:41;;;;;;;6.13;2.80;;;10.10;99.90;;;;;;5027090;28;20767;-85
2022/07/28 00:25:07;;;;;;;4.93;3.28;;;10.10;99.90;;;;;;5027934;28;20389;-85
2022/07/28 00:27:33;;;;;;;5.00;2.70;;;10.10;99.90;;;;;;5043754;28;20915;-85
2022/07/28 00:29:58;;;;;;;5.40;3.15;;;10.10;99.90;;;;;;5028650;28;20991;-85
2022/07/28 00:32:24;;;;;;;5.10;2.97;;;10.10;99.90;;;;;;5018497;28;20377;-85
2022/07/28 00:34:50;;;;;;;5.75;2.70;;;10.10;99.90;;;;;;5019096;28;20914;-85
2022/07/28 00:37:16;;;;;;;5.22;2.95;;;10.00;99.90;;;;;;5014099;28;20402;-85
2022/07/28 00:39:42;;;;;;;5.43;2.63;;;10.10;99.90;;;;;;5020325;28;20416;-85
2022/07/28 00:42:08;;;;;;;4.00;2.67;;;10.00;99.90;;;;;;5023691;28;20382;-85
2022/07/28 00:44:34;;;;;;;3.10;2.80;;;10.00;99.90;;;;;;5025310;28;20899;-85
2022/07/28 00:46:59;;;;;;;3.85;2.53;;;10.00;99.90;;;;;;5028516;28;20927;-85
2022/07/28 00:49:25;;;;;;;3.50;2.30;;;10.00;99.90;;;;;;5030117;28;20381;-85
2022/07/28 00:51:51;;;;;;;4.10;2.67;;;9.80;99.90;;;;;;5029554;28;20467;-85
2022/07/28 00:54:17;;;;;;;4.40;2.50;;;9.70;99.90;;;;;;5028811;28;20402;-85
2022/07/28 00:56:43;;;;;;;3.50;2.30;;;9.70;99.90;;;;;;5030262;28;20401;-86
2022/07/28 00:59:08;;;;;;;3.87;2.63;;;9.70;99.90;;;;;;5028980;28;20957;-86
2022/07/28 01:01:34;;;;;;;4.40;2.40;;;9.70;99.90;;;;;;5028404;28;20413;-85
2022/07/28 01:04:01;;;;;;;4.32;2.88;;;9.80;99.90;;;;;;5030254;28;20899;-85
2022/07/28 01:06:30;;;;;;;4.60;2.53;;;9.70;99.90;;;;;;5028399;28;20455;-85
2022/07/28 01:09:32;;;;;;;7.17;2.60;;;9.70;99.90;;;;;;5028742;28;20374;-85
2022/07/28 01:12:15;;;;;;;3.75;2.45;;;9.70;99.90;;;;;;5028665;28;20400;-85
2022/07/28 01:14:48;;;;;;;5.20;3.15;;;9.70;99.90;;;;;;5028931;28;20396;-84
2022/07/28 01:17:37;;;;;;;4.35;2.50;;;9.70;99.90;;;;;;5028503;28;20386;-85
2022/07/28 01:20:42;;;;;;;6.47;2.80;;;9.60;99.90;;;;;;5028580;28;20420;-85
2022/07/28 01:23:11;;;;;;;4.63;2.63;;;9.60;99.90;;;;;;5028449;28;21025;-85
2022/07/28 01:26:07;;;;;;;5.10;2.38;;;9.50;99.90;;;;;;5028546;28;20389;-84
2022/07/28 01:28:50;;;;;;;3.65;2.30;;;9.50;99.90;;;;;;5028600;28;20902;-84
2022/07/28 01:31:22;;;;;;;4.57;2.70;;;9.50;99.90;;;;;;5028197;28;20438;-85
2022/07/28 01:33:58;;;;;;;4.25;2.70;;;9.40;99.90;;;;;;5029778;28;20389;-84
2022/07/28 01:36:32;;;;;;;4.32;2.70;;;9.50;99.90;;;;;;5028169;28;20448;-85
2022/07/28 01:38:59;;;;;;;3.90;2.65;;;9.50;99.90;;;;;;5028569;28;20389;-84
2022/07/28 01:41:28;;;;;;;4.53;3.00;;;9.40;99.90;;;;;;5028207;28;20440;-83
2022/07/28 01:44:00;;;;;;;3.47;2.50;;;9.40;99.90;;;;;;5028548;28;20394;-84
2022/07/28 01:46:27;;;;;;;3.03;2.73;;;9.40;99.90;;;;;;5028178;28;20393;-85
2022/07/28 01:48:55;;;;;;;5.45;2.88;;;9.30;99.90;;;;;;5028687;28;20417;-84
2022/07/28 01:51:23;;;;;;;3.28;2.70;;;9.20;99.90;;;;;;5028285;28;20786;-83
2022/07/28 01:53:51;;;;;;;3.10;2.40;;;9.10;99.90;;;;;;5028617;28;20385;-84
2022/07/28 01:56:19;;;;;;;3.97;2.63;;;9.10;99.90;;;;;;5028882;28;20431;-83
2022/07/28 01:58:47;;;;;;;3.35;2.50;;;9.10;99.90;;;;;;5028325;28;20378;-84
2022/07/28 02:01:14;;;;;;;4.13;2.50;;;9.00;99.90;;;;;;5029198;28;20401;-84
2022/07/28 02:03:42;;;;;;;4.50;2.63;;;9.00;99.90;;;;;;5029361;28;20413;-83
2022/07/28 02:06:09;;;;;;;3.53;2.47;;;9.00;99.90;;;;;;5031754;28;20381;-84
2022/07/28 02:08:37;;;;;;;3.38;2.30;;;9.00;99.90;;;;;;5033161;28;20381;-83
2022/07/28 02:13:48;;;;;;;3.95;2.50;;;9.00;99.90;;;;;;5042572;28;20743;-84
2022/07/28 02:16:19;;;;;;;4.68;2.75;;;9.00;99.90;;;;;;5033681;28;20457;-84
2022/07/28 02:18:45;;;;;;;4.45;2.60;;;9.00;99.90;;;;;;5034318;28;20393;-84
2022/07/28 02:21:12;;;;;;;4.40;2.67;;;8.90;99.90;;;;;;5035363;28;20410;-83
2022/07/28 02:23:40;;;;;;;3.97;2.47;;;8.90;99.90;;;;;;5036763;28;20374;-84
2022/07/28 02:26:09;;;;;;;3.90;2.50;;;8.90;99.90;;;;;;5033911;28;20381;-83
2022/07/28 02:28:37;;;;;;;4.38;3.00;;;9.00;99.90;;;;;;5031803;28;20440;-83
2022/07/28 02:31:18;;;;;;;3.58;2.42;;;8.90;99.90;;;;;;5031801;28;20468;-84
2022/07/28 02:33:45;;;;;;;5.55;2.70;;;8.90;99.90;;;;;;5032006;28;20398;-83
2022/07/28 02:36:24;;;;;;;4.60;2.78;;;8.80;99.90;;;;;;5032109;28;20425;-83
2022/07/28 02:38:50;;;;;;;4.00;2.40;;;8.80;99.90;;;;;;5031953;28;20381;-83
2022/07/28 02:41:26;;;;;;;5.05;2.40;;;8.80;99.90;;;;;;5032966;28;20456;-83
2022/07/28 02:43:55;;;;;;;4.75;2.90;;;8.60;99.90;;;;;;5033435;28;20435;-83
2022/07/28 02:46:31;;;;;;;2.75;2.33;;;8.60;99.90;;;;;;5033186;28;20461;-83
2022/07/28 02:49:07;;;;;;;5.13;2.50;;;8.60;99.90;;;;;;5033026;28;20385;-83
2022/07/28 02:51:35;;;;;;;4.22;2.30;;;8.60;99.90;;;;;;5032900;28;20755;-83
2022/07/28 02:54:02;;;;;;;4.60;2.63;;;8.50;99.90;;;;;;5031528;28;20455;-83
2022/07/28 02:56:29;;;;;;;3.75;2.35;;;8.50;99.90;;;;;;5033856;28;20419;-83
2022/07/28 02:58:56;;;;;;;5.22;2.70;;;8.50;99.90;;;;;;5031458;28;20406;-83
2022/07/28 03:01:22;;;;;;;4.43;2.30;;;8.50;99.90;;;;;;5030522;28;20394;-82
2022/07/28 03:03:49;;;;;;;4.32;2.63;;;8.50;99.90;;;;;;5031308;28;20377;-82
2022/07/28 03:06:19;;;;;;;3.53;2.43;;;8.50;99.90;;;;;;5031076;28;20389;-84
2022/07/28 03:08:44;;;;;;;5.18;2.72;;;8.40;99.90;;;;;;5031459;28;20478;-82
2022/07/28 03:11:13;;;;;;;3.30;2.37;;;8.40;99.90;;;;;;5031179;28;20385;-82
2022/07/28 03:13:39;;;;;;;3.47;2.50;;;8.30;99.90;;;;;;5032677;28;20464;-82
2022/07/28 03:16:05;;;;;;;3.75;2.42;;;8.40;99.90;;;;;;5032398;28;20492;-82
2022/07/28 03:18:31;;;;;;;4.85;2.40;;;8.40;99.90;;;;;;5032200;28;20381;-82
2022/07/28 03:20:57;;;;;;;4.20;2.40;;;8.40;99.90;;;;;;5031932;28;20416;-82
2022/07/28 03:23:44;;;;;;;2.73;2.20;;;8.30;99.90;;;;;;5030384;28;20401;-82
2022/07/28 03:26:26;;;;;;;6.10;2.80;;;8.30;99.90;;;;;;5030535;28;20460;-82
2022/07/28 03:28:55;;;;;;;9.93;3.03;;;8.30;99.90;;;;;;5030582;28;20390;-81
2022/07/28 03:31:23;;;;;;;6.60;2.67;;;8.30;99.90;;;;;;5030244;28;20894;-82
2022/07/28 03:33:49;;;;;;;3.42;2.40;;;8.40;99.90;;;;;;5032129;28;20405;-81
2022/07/28 03:36:20;;;;;;;2.63;2.40;;;8.40;99.90;;;;;;5031735;28;20777;-82
2022/07/28 03:39:10;;;;;;;3.58;3.00;;;8.40;99.90;;;;;;5030080;28;20409;-82
2022/07/28 03:41:37;;;;;;;4.18;2.97;;;8.30;99.90;;;;;;5031172;28;20412;-82
2022/07/28 03:44:04;;;;;;;5.55;2.58;;;8.40;99.90;;;;;;5031397;28;20387;-81
2022/07/28 03:46:31;;;;;;;3.92;2.67;;;8.40;99.90;;;;;;5030246;28;20378;-81
2022/07/28 03:48:56;;;;;;;5.97;2.83;;;8.40;99.90;;;;;;5030108;28;20385;-82
2022/07/28 03:51:24;;;;;;;5.35;2.60;;;8.30;99.90;;;;;;5031002;28;20369;-82
2022/07/28 03:53:50;;;;;;;3.13;2.25;;;8.30;99.90;;;;;;5030181;28;20423;-81
2022/07/28 03:56:15;;;;;;;6.28;2.58;;;8.30;99.90;;;;;;5031223;28;20967;-81
2022/07/28 03:58:41;;;;;;;4.07;2.70;;;8.40;99.90;;;;;;5030144;28;20427;-81
2022/07/28 04:01:06;;;;;;;4.10;2.67;;;8.40;99.90;;;;;;5030068;28;20444;-82
2022/07/28 04:03:32;;;;;;;5.00;3.13;;;8.50;99.90;;;;;;5031784;28;20461;-81
2022/07/28 04:05:58;;;;;;;4.05;2.50;;;8.50;99.90;;;;;;5031597;28;20517;-81
2022/07/28 04:08:24;;;;;;;5.60;2.63;;;8.60;99.90;;;;;;5031841;28;20842;-81
2022/07/28 04:10:49;;;;;;;2.92;2.30;;;8.60;99.90;;;;;;5031552;28;20743;-81
2022/07/28 04:13:15;;;;;;;4.03;2.47;;;8.70;99.90;;;;;;5030240;28;20417;-82
2022/07/28 04:15:41;;;;;;;2.73;2.30;;;8.70;99.90;;;;;;5030095;28;20739;-82
2022/07/28 04:18:06;;;;;;;3.88;2.40;;;8.70;99.90;;;;;;5029697;28;20393;-82
2022/07/28 04:20:33;;;;;;;4.57;2.33;;;8.70;99.90;;;;;;5030715;28;20405;-81
2022/07/28 04:22:58;;;;;;;4.57;2.60;;;8.80;99.90;;;;;;5030208;28;20425;-82
2022/07/28 04:25:26;;;;;;;5.32;2.78;;;8.90;99.90;;;;;;5030481;28;20934;-82
2022/07/28 04:27:52;;;;;;;4.82;2.60;;;9.00;99.90;;;;;;5030263;28;20472;-81
2022/07/28 04:30:23;;;;;;;3.80;2.60;;;9.10;99.90;;;;;;5030840;28;20500;-82
2022/07/28 04:32:51;;;;;;;5.23;2.60;;;9.10;99.90;;;;;;5029144;28;20392;-81
2022/07/28 04:35:18;;;;;;;4.10;2.50;;;9.20;99.90;;;;;;5029261;28;20420;-82
2022/07/28 04:37:45;;;;;;;4.15;2.78;;;9.40;99.90;;;;;;5029140;28;20393;-81
2022/07/28 04:40:11;;;;;;;3.85;2.60;;;9.50;99.90;;;;;;5030559;28;20396;-82
2022/07/28 04:42:38;;;;;;;4.32;2.88;;;9.60;99.90;;;;;;5029090;28;20389;-81
2022/07/28 04:45:05;;;;;;;4.45;2.88;;;9.80;99.90;;;;;;5029550;28;20727;-82
2022/07/28 04:47:31;;;;;;;3.50;3.05;;;10.00;99.90;;;;;;5030519;28;20393;-82
2022/07/28 04:49:57;;;;;;;3.25;2.60;;;10.30;99.90;;;;;;5029157;28;20385;-82
2022/07/28 04:52:24;;;;;;;3.55;2.42;;;10.80;99.90;;;;;;5030386;28;20377;-82
2022/07/28 04:54:50;;;;;;;2.40;2.20;;;11.30;99.90;;;;;;5029813;28;20503;-82
2022/07/28 04:57:15;;;;;;;3.67;2.50;;;11.60;99.90;;;;;;5030767;28;20894;-82
2022/07/28 04:59:41;;;;;;;5.57;2.60;;;11.80;99.90;;;;;;5030554;28;20880;-83
2022/07/28 05:02:07;;;;;;;6.22;2.97;;;12.00;99.90;;;;;;5030830;28;20461;-83
2022/07/28 05:04:33;;;;;;;5.30;2.70;;;12.10;99.90;;;;;;5031133;28;20461;-83
2022/07/28 05:06:59;;;;;;;5.63;2.95;;;12.10;99.90;;;;;;5032837;28;20413;-83
2022/07/28 05:09:25;;;;;;;5.47;2.97;;;12.20;99.90;;;;;;5031560;28;20397;-83
2022/07/28 05:11:50;;;;;;;4.50;2.88;;;12.30;99.90;;;;;;5029258;28;20385;-83
2022/07/28 05:14:16;;;;;;;5.10;2.87;;;12.50;99.90;;;;;;5029596;28;20465;-83
2022/07/28 05:16:42;;;;;;;3.88;2.63;;;12.70;99.90;;;;;;5030592;28;20435;-83
2022/07/28 05:19:08;;;;;;;6.38;3.20;;;12.90;99.90;;;;;;5028667;28;20380;-84
2022/07/28 05:21:34;;;;;;;6.43;2.90;;;13.00;99.90;;;;;;5029013;28;20771;-83
2022/07/28 05:23:59;;;;;;;5.07;2.77;;;13.20;99.90;;;;;;5029475;28;20390;-83
2022/07/28 05:26:27;;;;;;;3.90;2.40;;;13.40;99.90;;;;;;5030141;28;20492;-83
2022/07/28 05:28:53;;;;;;;3.85;2.20;;;13.50;99.90;;;;;;5028534;28;20420;-84
2022/07/28 05:31:19;;;;;;;7.03;2.55;;;13.60;99.90;;;;;;5028295;28;20779;-84
2022/07/28 05:33:45;;;;;;;3.87;2.30;;;13.80;99.90;;;;;;5028684;28;20416;-84
2022/07/28 05:36:11;;;;;;;5.57;2.43;;;13.90;99.90;;;;;;5028400;28;20381;-84
2022/07/28 05:38:36;;;;;;;5.43;2.58;;;14.00;99.90;;;;;;5029476;28;20405;-85
2022/07/28 05:41:02;;;;;;;3.80;2.30;;;14.10;99.90;;;;;;5031901;28;20412;-85
2022/07/28 05:43:28;;;;;;;4.82;2.35;;;14.30;99.90;;;;;;5033518;28;20377;-85
2022/07/28 05:45:53;;;;;;;6.93;2.63;;;14.40;99.90;;;;;;5032385;28;20883;-86
2022/07/28 05:48:20;;;;;;;4.07;2.22;;;14.50;99.90;;;;;;5032347;28;20388;-83
2022/07/28 05:50:48;;;;;;;3.63;2.00;;;14.50;99.90;;;;;;5032328;28;20381;-85
2022/07/28 05:53:14;;;;;;;6.57;2.22;;;14.60;99.90;;;;;;5031956;28;20389;-87
2022/07/28 05:55:39;;;;;;;7.25;1.98;;;14.60;99.90;;;;;;5033459;28;20382;-86
2022/07/28 05:58:05;;;;;;;4.90;2.20;;;14.70;99.90;;;;;;5034475;28;20387;-83
2022/07/28 06:00:32;;;;;;;4.63;2.10;;;14.70;99.90;;;;;;5032882;28;20770;-86
2022/07/28 06:03:02;;;;;;;6.32;2.08;;;14.70;99.90;;;;;;5034339;28;20388;-85
2022/07/28 06:05:29;;;;;;;5.07;1.87;;;14.80;99.90;;;;;;5032417;28;20918;-84
2022/07/28 06:07:55;;;;;;;4.30;2.03;;;14.90;99.90;;;;;;5033425;28;20463;-84
2022/07/28 09:18:24;;;;;;;5.07;1.50;;;21.50;95.60;;;;;;5042871;28;20389;-87
2022/07/28 09:20:50;;;;;;;18.63;3.00;;;21.70;96.20;;;;;;5021125;28;20423;-86
2022/07/28 09:23:16;;;;;;;7.83;1.87;;;21.90;96.30;;;;;;5028010;28;20740;-87
2022/07/28 09:25:41;;;;;;;3.83;1.45;;;22.30;95.50;;;;;;5056127;28;20394;-87
2022/07/28 09:28:13;;;;;;;4.60;1.70;;;22.70;95.00;;;;;;5055995;28;20378;-87
2022/07/28 09:30:41;;;;;;;6.38;1.60;;;23.00;94.80;;;;;;5056066;28;20388;-88
2022/07/28 09:33:33;;;;;;;3.90;1.65;;;23.10;93.70;;;;;;5038472;28;20920;-88
2022/07/28 09:35:59;;;;;;;6.25;1.85;;;23.00;94.90;;;;;;5038911;28;20386;-87
2022/07/28 09:38:26;;;;;;;3.83;1.40;;;23.10;93.70;;;;;;5073555;28;20457;-88
2022/07/28 09:41:05;;;;;;;5.47;1.70;;;23.10;93.00;;;;;;5055538;28;20406;-88
2022/07/28 09:43:34;;;;;;;3.55;1.75;;;23.20;93.40;;;;;;5055971;28;20389;-89
2022/07/28 09:46:10;;;;;;;4.68;1.63;;;23.00;93.90;;;;;;5056342;28;20374;-86
2022/07/28 09:48:48;;;;;;;6.65;1.67;;;22.70;94.10;;;;;;5074241;28;20384;-86
2022/07/28 09:51:15;;;;;;;5.20;1.60;;;22.40;94.90;;;;;;5056662;28;20864;-88
2022/07/28 09:53:42;;;;;;;5.87;1.70;;;22.60;94.90;;;;;;5044805;28;20781;-87
2022/07/28 09:56:09;;;;;;;4.45;1.60;;;22.60;93.80;;;;;;5035843;28;20715;-87
2022/07/28 09:58:36;;;;;;;3.63;1.52;;;22.50;93.70;;;;;;5051126;28;20376;-89
2022/07/28 10:01:14;;;;;;;4.30;1.57;;;22.10;93.70;;;;;;5035244;28;20401;-88
2022/07/28 10:03:47;;;;;;;5.30;1.88;;;22.20;94.10;;;;;;5049780;28;20407;-88
2022/07/28 10:06:14;;;;;;;4.93;1.50;;;22.20;93.90;;;;;;5035068;28;20870;-86
2022/07/28 10:08:47;;;;;;;5.43;1.70;;;22.10;93.70;;;;;;5035194;28;20372;-88
2022/07/28 10:11:16;;;;;;;3.28;1.58;;;22.00;94.30;;;;;;5052671;28;20438;-85
2022/07/28 10:13:59;;;;;;;5.13;1.73;;;22.10;95.00;;;;;;5051640;28;20976;-86
2022/07/28 10:16:40;;;;;;;5.75;1.92;;;22.10;94.80;;;;;;5057416;28;20473;-88
2022/07/28 10:19:09;;;;;;;6.78;1.90;;;22.10;94.60;;;;;;5054662;28;20448;-86
2022/07/28 10:21:42;;;;;;;5.15;1.80;;;22.10;93.60;;;;;;5039740;28;20494;-84
2022/07/28 10:24:21;;;;;;;4.30;1.40;;;21.80;93.50;;;;;;5067464;28;20406;-87
2022/07/28 10:26:52;;;;;;;7.37;1.80;;;21.70;95.20;;;;;;5036318;28;20887;-86
2022/07/28 10:29:20;;;;;;;4.72;1.70;;;21.80;94.10;;;;;;5034090;28;20932;-88
2022/07/28 10:32:13;;;;;;;4.10;1.60;;;22.00;94.20;;;;;;5036923;28;20377;-87
2022/07/28 10:34:49;;;;;;;5.35;1.88;;;22.10;95.20;;;;;;5060436;28;20384;-86
2022/07/28 10:37:22;;;;;;;5.30;1.90;;;22.30;94.00;;;;;;5065268;28;20378;-85
2022/07/28 10:39:56;;;;;;;6.63;1.95;;;22.40;93.80;;;;;;5040020;28;20482;-86
2022/07/28 10:42:22;;;;;;;5.03;1.97;;;22.40;94.70;;;;;;5036374;28;20400;-85
2022/07/28 10:44:50;;;;;;;4.83;1.63;;;22.20;93.90;;;;;;5035991;28;20415;-86
2022/07/28 10:47:16;;;;;;;3.78;1.65;;;22.10;94.40;;;;;;5036783;28;20419;-85
2022/07/28 10:49:41;;;;;;;3.38;1.65;;;21.80;94.00;;;;;;5035204;28;20410;-87
2022/07/28 10:52:09;;;;;;;3.13;1.50;;;21.60;94.10;;;;;;5052336;28;20376;-85
2022/07/28 10:54:43;;;;;;;5.22;1.65;;;21.50;94.00;;;;;;5063042;28;20398;-87
2022/07/28 10:57:11;;;;;;;4.80;1.60;;;21.50;95.10;;;;;;5038385;28;20388;-87
2022/07/28 11:00:16;;;;;;;4.53;1.60;;;21.50;93.40;;;;;;5033098;28;20380;-85
2022/07/28 11:02:51;;;;;;;5.35;1.80;;;21.40;94.50;;;;;;5032639;28;20447;-86
2022/07/28 11:05:32;;;;;;;3.58;1.63;;;21.50;93.40;;;;;;5052481;28;20726;-88
2022/07/28 11:08:01;;;;;;;4.97;1.75;;;21.50;94.30;;;;;;5053953;28;20749;-85
2022/07/28 11:10:28;;;;;;;4.30;1.80;;;21.70;94.50;;;;;;5035163;28;20384;-84
2022/07/28 11:12:56;;;;;;;3.78;1.42;;;21.90;93.60;;;;;;5052293;28;20395;-85
2022/07/28 11:15:35;;;;;;;4.88;1.50;;;22.00;92.90;;;;;;5034932;28;20426;-85
2022/07/28 11:18:08;;;;;;;10.02;2.00;;;21.80;93.10;;;;;;5032997;28;20446;-85
2022/07/28 11:20:52;;;;;;;3.67;1.50;;;21.80;92.90;;;;;;5034659;28;20773;-87
2022/07/28 11:23:45;;;;;;;5.10;1.50;;;21.80;93.90;;;;;;5053588;28;20865;-85
2022/07/28 11:26:29;;;;;;;6.43;1.80;;;22.00;94.00;;;;;;5057868;28;20391;-88
2022/07/28 11:29:07;;;;;;;2.33;1.30;;;22.20;93.50;;;;;;5063201;28;20858;-89
2022/07/28 11:31:45;;;;;;;3.92;1.58;;;22.40;93.00;;;;;;5068221;28;20429;-86
2022/07/28 11:34:17;;;;;;;5.35;1.73;;;22.50;92.70;;;;;;5071178;28;20690;-86
2022/07/28 11:37:03;;;;;;;5.68;1.73;;;22.50;92.30;;;;;;5070760;28;20374;-86
2022/07/28 11:39:32;;;;;;;6.40;1.77;;;22.50;93.10;;;;;;5054803;28;20393;-86
2022/07/28 11:41:59;;;;;;;4.00;1.67;;;22.60;93.00;;;;;;5049275;28;20401;-86
2022/07/28 11:44:26;;;;;;;3.35;1.40;;;22.70;92.80;;;;;;5064650;28;20393;-85
2022/07/28 11:46:52;;;;;;;4.80;1.70;;;22.90;92.40;;;;;;5052126;28;20445;-85
2022/07/28 11:49:20;;;;;;;5.18;1.45;;;22.80;91.30;;;;;;5046761;28;20431;-87
2022/07/28 11:52:05;;;;;;;2.95;1.40;;;22.80;91.70;;;;;;5046972;28;20374;-84
2022/07/28 11:54:31;;;;;;;4.88;1.50;;;22.90;91.30;;;;;;5060255;28;20400;-85
2022/07/28 11:56:57;;;;;;;4.53;1.53;;;23.00;92.30;;;;;;5039203;28;20391;-87
2022/07/28 11:59:23;;;;;;;2.58;1.52;;;23.00;92.30;;;;;;5052652;28;20394;-89
2022/07/28 12:01:53;;;;;;;3.85;1.50;;;23.20;91.90;;;;;;5049815;28;20451;-85
2022/07/28 12:04:25;;;;;;;2.97;1.20;;;23.20;90.60;;;;;;5066673;28;20374;-86
2022/07/28 12:06:51;;;;;;;3.47;1.30;;;22.80;90.20;;;;;;5069352;28;20409;-86
2022/07/28 12:09:17;;;;;;;4.20;1.30;;;22.50;91.70;;;;;;5062787;28;20455;-85
2022/07/28 12:11:44;;;;;;;5.77;1.37;;;22.30;91.20;;;;;;5050393;28;20469;-87
2022/07/28 12:14:15;;;;;;;4.20;1.50;;;22.30;91.10;;;;;;5045454;28;20450;-88
2022/07/28 12:16:48;;;;;;;7.50;1.85;;;22.30;91.20;;;;;;5049617;28;20393;-85
2022/07/28 12:19:15;;;;;;;5.90;1.30;;;22.40;91.20;;;;;;5049571;28;20894;-86
2022/07/28 12:21:43;;;;;;;3.53;1.33;;;22.60;90.60;;;;;;5069554;28;20409;-83
2022/07/28 12:24:12;;;;;;;4.20;1.50;;;22.40;91.20;;;;;;5068990;28;20369;-87
2022/07/28 12:26:39;;;;;;;3.65;1.38;;;22.50;91.00;;;;;;5070168;28;20420;-87
2022/07/28 12:29:05;;;;;;;3.50;1.47;;;22.60;91.70;;;;;;5069519;28;20401;-87
2022/07/28 12:31:32;;;;;;;4.53;1.40;;;22.50;91.50;;;;;;5051906;28;20416;-86
2022/07/28 12:34:15;;;;;;;4.20;1.75;;;22.70;91.70;;;;;;5052277;28;20446;-88
2022/07/28 12:36:41;;;;;;;4.32;1.80;;;22.80;90.40;;;;;;5050657;28;20379;-86
2022/07/28 12:39:07;;;;;;;38.80;5.03;;;22.70;90.60;;;;;;5051774;28;20910;-84
2022/07/28 12:41:42;;;;;;;4.10;1.20;;;23.00;96.80;;;;;;5069452;28;20405;-85
2022/07/28 12:44:09;;;;;;;4.85;1.50;;;23.00;95.70;;;;;;5072231;28;20417;-84
2022/07/28 12:46:35;;;;;;;2.65;1.40;;;23.10;96.50;;;;;;5070463;28;20378;-88
2022/07/28 12:49:02;;;;;;;3.42;1.20;;;23.40;96.30;;;;;;5053942;28;20370;-86
2022/07/28 12:51:35;;;;;;;5.15;1.60;;;23.70;99.90;;;;;;5055437;28;21175;-86
2022/07/28 12:54:05;;;;;;;3.28;1.33;;;23.60;99.90;;;;;;5070645;28;20374;-87
2022/07/28 12:56:42;;;;;;;6.38;1.83;;;23.80;99.90;;;;;;5055142;28;20642;-88
2022/07/28 12:59:09;;;;;;;4.65;1.30;;;23.90;99.90;;;;;;5053832;28;20459;-86
2022/07/28 13:01:51;;;;;;;6.05;1.60;;;23.80;98.10;;;;;;5070729;28;20495;-86
2022/07/28 13:04:48;;;;;;;3.83;1.55;;;23.50;96.20;;;;;;5053863;28;20461;-85
2022/07/28 13:07:24;;;;;;;3.40;1.40;;;23.20;96.30;;;;;;5050757;28;20418;-85
2022/07/28 13:10:10;;;;;;;3.50;1.33;;;23.00;97.00;;;;;;5054233;28;20473;-86
2022/07/28 13:12:36;;;;;;;3.38;1.20;;;23.00;97.10;;;;;;5070233;28;20366;-85
2022/07/28 13:15:13;;;;;;;2.47;1.30;;;23.20;97.20;;;;;;5053780;28;20726;-87
2022/07/28 13:17:57;;;;;;;3.88;1.25;;;23.20;97.20;;;;;;5070810;28;20381;-84
2022/07/28 13:20:27;;;;;;;3.50;1.65;;;23.30;88.80;;;;;;5071301;28;20410;-85
2022/07/28 13:22:53;;;;;;;3.10;1.37;;;23.10;87.80;;;;;;5046449;28;20390;-88
2022/07/28 13:25:20;;;;;;;3.00;1.42;;;22.90;87.40;;;;;;5049507;28;20705;-85
2022/07/28 13:27:46;;;;;;;4.30;1.40;;;22.90;88.00;;;;;;5051504;28;20887;-85
2022/07/28 13:30:11;;;;;;;4.17;1.30;;;22.90;88.70;;;;;;5050911;28;20383;-85
2022/07/28 13:32:37;;;;;;;4.50;1.30;;;23.00;89.20;;;;;;5051183;28;20377;-85
2022/07/28 13:35:04;;;;;;;4.27;1.40;;;23.10;88.40;;;;;;5067414;28;20370;-87
2022/07/28 13:37:32;;;;;;;3.67;1.20;;;23.10;87.80;;;;;;5045980;28;20901;-86
2022/07/28 13:40:00;;;;;;;3.60;1.50;;;23.20;88.70;;;;;;5073025;28;20473;-86
2022/07/28 13:42:29;;;;;;;6.20;1.45;;;23.40;90.20;;;;;;5049975;28;20405;-86
2022/07/28 13:44:54;;;;;;;3.55;1.27;;;23.70;87.10;;;;;;5060137;28;20473;-86
2022/07/28 13:47:20;;;;;;;3.37;1.20;;;23.90;86.60;;;;;;5046162;28;20466;-83
2022/07/28 13:49:45;;;;;;;2.23;1.30;;;24.30;86.90;;;;;;5056154;28;20465;-86
2022/07/28 13:52:15;;;;;;;4.90;1.80;;;24.30;86.50;;;;;;5049950;28;20887;-84
2022/07/28 13:54:41;;;;;;;4.47;1.40;;;24.30;83.90;;;;;;5066299;28;20390;-85
2022/07/28 13:57:12;;;;;;;2.90;1.40;;;24.20;86.10;;;;;;5056952;28;20371;-86
2022/07/28 13:59:38;;;;;;;2.97;1.40;;;24.30;87.00;;;;;;5070394;28;20405;-85
2022/07/28 14:02:04;;;;;;;2.50;1.25;;;24.40;83.50;;;;;;5058654;28;20390;-86
2022/07/28 14:04:30;;;;;;;5.45;1.70;;;24.40;82.50;;;;;;5075964;28;20391;-83
2022/07/28 14:06:55;;;;;;;3.47;1.30;;;24.40;83.50;;;;;;5058623;28;20389;-87
2022/07/28 14:09:21;;;;;;;3.88;1.27;;;24.30;85.10;;;;;;5055960;28;20385;-87
2022/07/28 14:11:47;;;;;;;6.95;1.83;;;24.20;85.60;;;;;;5057988;28;20465;-85
2022/07/28 14:14:13;;;;;;;2.77;1.20;;;24.20;84.60;;;;;;5067753;28;20473;-87
2022/07/28 14:16:40;;;;;;;5.93;1.42;;;24.20;85.00;;;;;;5073059;28;20406;-83
2022/07/28 14:19:06;;;;;;;3.80;1.38;;;24.20;84.80;;;;;;5063285;28;20436;-86
2022/07/28 14:21:31;;;;;;;2.88;1.30;;;24.40;82.90;;;;;;5055906;28;20430;-85
2022/07/28 14:23:57;;;;;;;3.53;1.30;;;24.10;84.90;;;;;;5071579;28;20432;-87
2022/07/28 14:26:23;;;;;;;3.10;1.37;;;24.30;85.00;;;;;;5047241;28;20378;-87
2022/07/28 14:28:48;;;;;;;4.53;1.10;;;24.20;84.10;;;;;;5071017;28;20895;-85
2022/07/28 14:31:16;;;;;;;2.70;1.20;;;24.20;83.10;;;;;;5055652;28;20428;-88
2022/07/28 14:33:51;;;;;;;3.83;1.55;;;24.20;81.90;;;;;;5058850;28;20442;-89
2022/07/28 14:36:20;;;;;;;7.18;1.80;;;24.00;81.40;;;;;;5063390;28;20432;-86
2022/07/28 14:38:46;;;;;;;5.40;1.45;;;23.90;83.90;;;;;;5055823;28;20392;-86
2022/07/28 14:41:13;;;;;;;3.33;1.15;;;24.00;82.90;;;;;;5053590;28;20771;-85
2022/07/28 14:43:39;;;;;;;3.90;1.52;;;23.80;82.80;;;;;;5070893;28;20382;-83
2022/07/28 14:46:04;;;;;;;1.70;1.02;;;23.80;83.40;;;;;;5071225;28;20744;-85
2022/07/28 14:48:31;;;;;;;2.83;1.50;;;23.70;83.20;;;;;;5053372;28;20509;-84
2022/07/28 14:50:57;;;;;;;4.87;1.40;;;23.50;81.60;;;;;;5053416;28;20436;-85
2022/07/28 14:53:23;;;;;;;4.30;1.27;;;23.40;82.40;;;;;;5053397;28;20803;-84
2022/07/28 14:55:49;;;;;;;5.85;1.30;;;23.20;82.30;;;;;;5055123;28;20412;-84
2022/07/28 14:58:14;;;;;;;3.33;1.13;;;23.30;83.00;;;;;;5053636;28;20444;-85
2022/07/28 15:00:40;;;;;;;3.03;1.35;;;23.30;83.70;;;;;;5055327;28;20442;-87
2022/07/28 15:03:06;;;;;;;3.13;1.40;;;23.30;85.50;;;;;;5055116;28;20369;-86
2022/07/28 15:05:31;;;;;;;4.65;1.38;;;23.40;84.90;;;;;;5055439;28;20464;-87
2022/07/28 15:07:57;;;;;;;4.10;1.33;;;23.50;81.60;;;;;;5062389;28;20374;-86
2022/07/28 15:10:23;;;;;;;4.53;1.80;;;23.60;85.60;;;;;;5054011;28;20776;-87
2022/07/28 15:12:49;;;;;;;2.65;1.40;;;23.70;85.70;;;;;;5056041;28;20440;-88
2022/07/28 15:15:15;;;;;;;3.42;2.35;;;23.70;83.80;;;;;;5056158;28;20832;-85
2022/07/28 15:17:41;;;;;;;16.80;15.10;;;23.70;83.80;;;;;;5055854;28;21021;-88
2022/07/28 15:20:09;;;;;;;5.82;3.67;;;23.80;83.80;;;;;;5062128;28;20386;-87
2022/07/28 15:22:36;;;;;;;7.22;6.32;;;23.80;84.10;;;;;;5053754;28;20398;-86
2022/07/28 15:25:04;;;;;;;4.28;2.38;;;23.90;82.80;;;;;;5053799;28;20386;-86
2022/07/28 15:27:29;;;;;;;13.45;9.73;;;23.90;82.60;;;;;;5069638;28;20376;-85
2022/07/28 15:29:55;;;;;;;5.57;2.10;;;23.80;83.50;;;;;;5060436;28;20513;-86
2022/07/28 15:32:21;;;;;;;6.22;3.33;;;23.80;83.20;;;;;;5054983;28;20386;-87
2022/07/28 15:34:52;;;;;;;4.90;1.70;;;23.90;83.20;;;;;;5053148;28;20390;-88
2022/07/28 15:37:18;;;;;;;5.10;1.67;;;23.80;82.30;;;;;;5054229;28;20401;-85
2022/07/28 15:39:47;;;;;;;6.22;5.15;;;23.80;81.90;;;;;;5054131;28;21116;-86
2022/07/28 15:42:13;;;;;;;7.05;4.53;;;23.80;82.10;;;;;;5051848;28;20460;-90
2022/07/28 15:44:39;;;;;;;3.78;1.60;;;23.70;83.30;;;;;;5052472;28;20382;-86
2022/07/28 15:47:05;;;;;;;3.30;1.27;;;23.80;83.00;;;;;;5070421;28;20385;-85
2022/07/28 15:49:30;;;;;;;3.88;1.50;;;23.60;82.80;;;;;;5070538;28;20400;-87
2022/07/28 15:51:56;;;;;;;10.83;3.60;;;23.60;83.50;;;;;;5052866;28;20382;-91
2022/07/28 15:54:22;;;;;;;10.97;3.97;;;23.60;83.10;;;;;;5052474;28;20431;-87
2022/07/28 15:56:47;;;;;;;4.70;1.50;;;23.50;83.20;;;;;;5070078;28;20471;-87
2022/07/28 15:59:13;;;;;;;2.53;1.30;;;23.50;84.10;;;;;;5053782;28;20385;-87
2022/07/28 16:01:39;;;;;;;4.88;1.50;;;23.50;82.70;;;;;;5054343;28;20410;-86
2022/07/28 16:04:05;;;;;;;2.90;1.30;;;23.50;81.50;;;;;;5070465;28;20372;-83
2022/07/28 16:09:16;;;;;;;4.15;1.38;;;23.30;83.70;;;;;;5067675;28;20378;-86
2022/07/28 16:11:44;;;;;;;2.88;1.30;;;23.30;84.30;;;;;;5053476;28;20374;-84
2022/07/28 16:14:10;;;;;;;4.35;1.40;;;23.20;83.50;;;;;;5050570;28;20428;-87